sensor_id;sensor_type;location;lat;lon;timestamp;P1;durP1;ratioP1;P2;durP2;ratioP2
16286;SDS011;8251;53.568;10.018;2022-07-29T00:01:13;6.40;;;5.90;;
16286;SDS011;8251;53.568;10.018;2022-07-29T00:03:41;6.33;;;5.80;;
16286;SDS011;8251;53.568;10.018;2022-07-29T00:06:08;7.50;;;6.13;;
16286;SDS011;8251;53.568;10.018;2022-07-29T00:08:35;8.23;;;7.60;;
16286;SDS011;8251;53.568;10.018;2022-07-29T00:11:03;7.97;;;7.47;;
16286;SDS011;8251;53.568;10.018;2022-07-29T00:13:30;12.53;;;7.60;;
16286;SDS011;8251;53.568;10.018;2022-07-29T00:15:57;6.83;;;6.27;;
16286;SDS011;8251;53.568;10.018;2022-07-29T00:21:41;7.73;;;7.17;;
16286;SDS011;8251;53.568;10.018;2022-07-29T00:24:08;7.20;;;6.17;;
16286;SDS011;8251;53.568;10.018;2022-07-29T00:26:36;6.17;;;5.43;;
16286;SDS011;8251;53.568;10.018;2022-07-29T00:29:03;7.30;;;6.67;;
16286;SDS011;8251;53.568;10.018;2022-07-29T00:31:30;6.13;;;5.73;;
16286;SDS011;8251;53.568;10.018;2022-07-29T00:33:57;6.63;;;6.13;;
16286;SDS011;8251;53.568;10.018;2022-07-29T00:36:24;4.70;;;4.30;;
16286;SDS011;8251;53.568;10.018;2022-07-29T00:38:50;6.47;;;5.83;;
16286;SDS011;8251;53.568;10.018;2022-07-29T00:41:18;6.57;;;6.07;;
16286;SDS011;8251;53.568;10.018;2022-07-29T00:43:46;7.60;;;5.00;;
16286;SDS011;8251;53.568;10.018;2022-07-29T00:46:13;6.33;;;5.70;;
16286;SDS011;8251;53.568;10.018;2022-07-29T00:48:40;7.77;;;6.57;;
16286;SDS011;8251;53.568;10.018;2022-07-29T00:51:07;5.53;;;5.10;;
16286;SDS011;8251;53.568;10.018;2022-07-29T00:53:35;7.10;;;6.33;;
16286;SDS011;8251;53.568;10.018;2022-07-29T00:56:02;7.97;;;7.27;;
16286;SDS011;8251;53.568;10.018;2022-07-29T00:58:29;7.37;;;6.77;;
16286;SDS011;8251;53.568;10.018;2022-07-29T01:00:59;7.87;;;7.17;;
16286;SDS011;8251;53.568;10.018;2022-07-29T01:03:26;6.60;;;6.00;;
16286;SDS011;8251;53.568;10.018;2022-07-29T01:05:53;6.33;;;4.43;;
16286;SDS011;8251;53.568;10.018;2022-07-29T01:08:20;5.80;;;5.23;;
16286;SDS011;8251;53.568;10.018;2022-07-29T01:10:49;4.10;;;3.70;;
16286;SDS011;8251;53.568;10.018;2022-07-29T01:13:18;5.20;;;4.73;;
16286;SDS011;8251;53.568;10.018;2022-07-29T01:15:46;6.83;;;6.23;;
16286;SDS011;8251;53.568;10.018;2022-07-29T01:18:20;7.80;;;7.20;;
16286;SDS011;8251;53.568;10.018;2022-07-29T01:21:00;8.30;;;7.70;;
16286;SDS011;8251;53.568;10.018;2022-07-29T01:23:59;8.63;;;7.83;;
16286;SDS011;8251;53.568;10.018;2022-07-29T01:26:45;8.07;;;7.37;;
16286;SDS011;8251;53.568;10.018;2022-07-29T01:29:23;6.83;;;6.20;;
16286;SDS011;8251;53.568;10.018;2022-07-29T01:31:56;6.83;;;6.33;;
16286;SDS011;8251;53.568;10.018;2022-07-29T01:34:27;7.37;;;6.67;;
16286;SDS011;8251;53.568;10.018;2022-07-29T01:37:01;4.87;;;4.47;;
16286;SDS011;8251;53.568;10.018;2022-07-29T01:39:35;8.43;;;6.53;;
16286;SDS011;8251;53.568;10.018;2022-07-29T01:42:06;7.20;;;6.50;;
16286;SDS011;8251;53.568;10.018;2022-07-29T01:44:45;3.80;;;1.37;;
16286;SDS011;8251;53.568;10.018;2022-07-29T01:47:17;7.70;;;6.90;;
16286;SDS011;8251;53.568;10.018;2022-07-29T01:49:48;10.13;;;6.80;;
16286;SDS011;8251;53.568;10.018;2022-07-29T01:52:19;7.37;;;6.63;;
16286;SDS011;8251;53.568;10.018;2022-07-29T01:54:52;9.87;;;7.43;;
16286;SDS011;8251;53.568;10.018;2022-07-29T01:57:24;6.93;;;6.23;;
16286;SDS011;8251;53.568;10.018;2022-07-29T01:59:55;9.83;;;8.03;;
16286;SDS011;8251;53.568;10.018;2022-07-29T02:02:24;9.00;;;7.10;;
16286;SDS011;8251;53.568;10.018;2022-07-29T02:05:03;8.23;;;7.23;;
16286;SDS011;8251;53.568;10.018;2022-07-29T02:07:33;10.97;;;7.50;;
16286;SDS011;8251;53.568;10.018;2022-07-29T02:10:01;10.77;;;7.80;;
16286;SDS011;8251;53.568;10.018;2022-07-29T02:12:30;11.80;;;8.93;;
16286;SDS011;8251;53.568;10.018;2022-07-29T02:15:01;13.27;;;9.10;;
16286;SDS011;8251;53.568;10.018;2022-07-29T02:17:31;10.20;;;8.73;;
16286;SDS011;8251;53.568;10.018;2022-07-29T02:20:02;10.53;;;8.33;;
16286;SDS011;8251;53.568;10.018;2022-07-29T02:22:31;12.17;;;9.00;;
16286;SDS011;8251;53.568;10.018;2022-07-29T02:25:01;11.83;;;7.93;;
16286;SDS011;8251;53.568;10.018;2022-07-29T02:27:28;8.30;;;6.40;;
16286;SDS011;8251;53.568;10.018;2022-07-29T02:29:57;8.83;;;7.10;;
16286;SDS011;8251;53.568;10.018;2022-07-29T02:32:29;12.33;;;5.90;;
16286;SDS011;8251;53.568;10.018;2022-07-29T02:34:58;5.97;;;5.33;;
16286;SDS011;8251;53.568;10.018;2022-07-29T02:37:26;8.00;;;6.37;;
16286;SDS011;8251;53.568;10.018;2022-07-29T02:39:55;11.47;;;7.03;;
16286;SDS011;8251;53.568;10.018;2022-07-29T02:42:23;5.87;;;5.27;;
16286;SDS011;8251;53.568;10.018;2022-07-29T02:44:54;7.30;;;6.57;;
16286;SDS011;8251;53.568;10.018;2022-07-29T02:47:23;6.90;;;6.30;;
16286;SDS011;8251;53.568;10.018;2022-07-29T02:49:57;6.47;;;5.97;;
16286;SDS011;8251;53.568;10.018;2022-07-29T02:52:32;5.87;;;4.40;;
16286;SDS011;8251;53.568;10.018;2022-07-29T02:55:06;5.60;;;5.10;;
16286;SDS011;8251;53.568;10.018;2022-07-29T02:57:51;9.30;;;6.20;;
16286;SDS011;8251;53.568;10.018;2022-07-29T03:00:25;6.57;;;6.07;;
16286;SDS011;8251;53.568;10.018;2022-07-29T03:02:56;7.40;;;5.00;;
16286;SDS011;8251;53.568;10.018;2022-07-29T03:05:25;5.90;;;4.63;;
16286;SDS011;8251;53.568;10.018;2022-07-29T03:07:54;5.43;;;5.03;;
16286;SDS011;8251;53.568;10.018;2022-07-29T03:10:23;7.57;;;4.70;;
16286;SDS011;8251;53.568;10.018;2022-07-29T03:12:52;4.93;;;4.30;;
16286;SDS011;8251;53.568;10.018;2022-07-29T03:15:20;5.33;;;4.87;;
16286;SDS011;8251;53.568;10.018;2022-07-29T03:17:47;5.80;;;5.17;;
16286;SDS011;8251;53.568;10.018;2022-07-29T03:20:17;5.93;;;5.10;;
16286;SDS011;8251;53.568;10.018;2022-07-29T03:22:45;6.13;;;5.40;;
16286;SDS011;8251;53.568;10.018;2022-07-29T03:25:13;8.40;;;6.03;;
16286;SDS011;8251;53.568;10.018;2022-07-29T03:27:40;6.47;;;5.87;;
16286;SDS011;8251;53.568;10.018;2022-07-29T03:30:08;5.87;;;3.63;;
16286;SDS011;8251;53.568;10.018;2022-07-29T03:32:36;6.57;;;5.97;;
16286;SDS011;8251;53.568;10.018;2022-07-29T03:35:04;6.87;;;6.20;;
16286;SDS011;8251;53.568;10.018;2022-07-29T03:37:33;5.83;;;5.33;;
16286;SDS011;8251;53.568;10.018;2022-07-29T03:40:02;7.33;;;5.60;;
16286;SDS011;8251;53.568;10.018;2022-07-29T03:42:31;4.30;;;3.60;;
16286;SDS011;8251;53.568;10.018;2022-07-29T03:45:03;6.23;;;4.20;;
16286;SDS011;8251;53.568;10.018;2022-07-29T03:47:32;6.30;;;5.80;;
16286;SDS011;8251;53.568;10.018;2022-07-29T03:50:05;6.60;;;6.00;;
16286;SDS011;8251;53.568;10.018;2022-07-29T03:52:35;7.80;;;6.20;;
16286;SDS011;8251;53.568;10.018;2022-07-29T03:55:03;6.97;;;6.37;;
16286;SDS011;8251;53.568;10.018;2022-07-29T03:57:31;7.50;;;6.10;;
16286;SDS011;8251;53.568;10.018;2022-07-29T03:59:59;6.03;;;5.50;;
16286;SDS011;8251;53.568;10.018;2022-07-29T04:02:29;8.87;;;5.60;;
16286;SDS011;8251;53.568;10.018;2022-07-29T04:04:57;6.70;;;5.30;;
16286;SDS011;8251;53.568;10.018;2022-07-29T04:07:25;6.80;;;4.87;;
16286;SDS011;8251;53.568;10.018;2022-07-29T04:09:53;7.60;;;6.40;;
16286;SDS011;8251;53.568;10.018;2022-07-29T04:12:20;10.30;;;6.23;;
16286;SDS011;8251;53.568;10.018;2022-07-29T04:14:47;6.40;;;5.10;;
16286;SDS011;8251;53.568;10.018;2022-07-29T04:17:15;10.20;;;5.77;;
16286;SDS011;8251;53.568;10.018;2022-07-29T04:19:41;5.17;;;4.73;;
16286;SDS011;8251;53.568;10.018;2022-07-29T04:22:08;7.47;;;6.70;;
16286;SDS011;8251;53.568;10.018;2022-07-29T04:24:35;6.73;;;6.23;;
16286;SDS011;8251;53.568;10.018;2022-07-29T04:27:03;3.23;;;1.80;;
16286;SDS011;8251;53.568;10.018;2022-07-29T04:29:31;7.33;;;6.47;;
16286;SDS011;8251;53.568;10.018;2022-07-29T04:31:57;7.63;;;5.03;;
16286;SDS011;8251;53.568;10.018;2022-07-29T04:34:24;8.70;;;6.40;;
16286;SDS011;8251;53.568;10.018;2022-07-29T04:36:51;3.17;;;1.80;;
16286;SDS011;8251;53.568;10.018;2022-07-29T04:39:18;11.10;;;4.87;;
16286;SDS011;8251;53.568;10.018;2022-07-29T04:41:45;10.77;;;7.60;;
16286;SDS011;8251;53.568;10.018;2022-07-29T04:44:13;7.73;;;6.17;;
16286;SDS011;8251;53.568;10.018;2022-07-29T04:46:40;7.07;;;6.27;;
16286;SDS011;8251;53.568;10.018;2022-07-29T04:49:08;7.37;;;5.80;;
16286;SDS011;8251;53.568;10.018;2022-07-29T04:51:35;6.83;;;6.27;;
16286;SDS011;8251;53.568;10.018;2022-07-29T04:54:03;6.27;;;5.77;;
16286;SDS011;8251;53.568;10.018;2022-07-29T04:56:31;5.70;;;5.27;;
16286;SDS011;8251;53.568;10.018;2022-07-29T04:58:58;7.27;;;5.80;;
16286;SDS011;8251;53.568;10.018;2022-07-29T05:01:26;7.20;;;6.50;;
16286;SDS011;8251;53.568;10.018;2022-07-29T05:03:53;9.20;;;6.67;;
16286;SDS011;8251;53.568;10.018;2022-07-29T05:06:20;5.97;;;5.57;;
16286;SDS011;8251;53.568;10.018;2022-07-29T05:08:47;5.60;;;5.00;;
16286;SDS011;8251;53.568;10.018;2022-07-29T05:11:16;7.67;;;7.07;;
16286;SDS011;8251;53.568;10.018;2022-07-29T05:13:49;6.70;;;6.10;;
16286;SDS011;8251;53.568;10.018;2022-07-29T05:16:16;8.13;;;5.30;;
16286;SDS011;8251;53.568;10.018;2022-07-29T05:18:45;6.70;;;5.27;;
16286;SDS011;8251;53.568;10.018;2022-07-29T05:21:11;7.20;;;5.23;;
16286;SDS011;8251;53.568;10.018;2022-07-29T05:23:38;10.77;;;5.63;;
16286;SDS011;8251;53.568;10.018;2022-07-29T05:26:05;5.43;;;4.90;;
16286;SDS011;8251;53.568;10.018;2022-07-29T05:28:33;7.33;;;5.97;;
16286;SDS011;8251;53.568;10.018;2022-07-29T05:31:00;9.60;;;5.33;;
16286;SDS011;8251;53.568;10.018;2022-07-29T05:33:28;10.73;;;6.63;;
16286;SDS011;8251;53.568;10.018;2022-07-29T05:35:57;7.10;;;6.47;;
16286;SDS011;8251;53.568;10.018;2022-07-29T05:38:24;7.40;;;4.97;;
16286;SDS011;8251;53.568;10.018;2022-07-29T05:40:51;6.00;;;5.50;;
16286;SDS011;8251;53.568;10.018;2022-07-29T05:43:18;11.43;;;5.53;;
16286;SDS011;8251;53.568;10.018;2022-07-29T05:45:45;15.17;;;5.87;;
16286;SDS011;8251;53.568;10.018;2022-07-29T05:48:12;5.73;;;5.20;;
16286;SDS011;8251;53.568;10.018;2022-07-29T05:50:39;11.43;;;5.27;;
16286;SDS011;8251;53.568;10.018;2022-07-29T05:53:08;5.17;;;4.63;;
16286;SDS011;8251;53.568;10.018;2022-07-29T05:55:35;7.10;;;4.70;;
16286;SDS011;8251;53.568;10.018;2022-07-29T05:58:02;5.80;;;5.30;;
16286;SDS011;8251;53.568;10.018;2022-07-29T06:00:29;8.17;;;4.57;;
16286;SDS011;8251;53.568;10.018;2022-07-29T06:02:56;4.57;;;3.20;;
16286;SDS011;8251;53.568;10.018;2022-07-29T06:05:23;6.23;;;5.60;;
16286;SDS011;8251;53.568;10.018;2022-07-29T06:07:50;7.70;;;6.13;;
16286;SDS011;8251;53.568;10.018;2022-07-29T06:10:19;7.43;;;5.73;;
16286;SDS011;8251;53.568;10.018;2022-07-29T06:12:46;6.17;;;5.57;;
16286;SDS011;8251;53.568;10.018;2022-07-29T06:15:13;7.13;;;4.90;;
16286;SDS011;8251;53.568;10.018;2022-07-29T06:17:42;6.03;;;2.50;;
16286;SDS011;8251;53.568;10.018;2022-07-29T06:20:10;4.97;;;4.57;;
16286;SDS011;8251;53.568;10.018;2022-07-29T06:22:37;6.80;;;5.90;;
16286;SDS011;8251;53.568;10.018;2022-07-29T06:25:05;7.57;;;6.50;;
16286;SDS011;8251;53.568;10.018;2022-07-29T06:27:34;6.70;;;5.83;;
16286;SDS011;8251;53.568;10.018;2022-07-29T06:30:01;4.17;;;2.30;;
16286;SDS011;8251;53.568;10.018;2022-07-29T06:32:31;5.83;;;3.33;;
16286;SDS011;8251;53.568;10.018;2022-07-29T06:34:58;6.50;;;5.10;;
16286;SDS011;8251;53.568;10.018;2022-07-29T06:37:25;9.13;;;6.33;;
16286;SDS011;8251;53.568;10.018;2022-07-29T06:39:53;5.27;;;3.20;;
16286;SDS011;8251;53.568;10.018;2022-07-29T06:42:35;5.83;;;5.27;;
16286;SDS011;8251;53.568;10.018;2022-07-29T06:45:02;5.93;;;5.33;;
16286;SDS011;8251;53.568;10.018;2022-07-29T06:47:29;6.80;;;6.17;;
16286;SDS011;8251;53.568;10.018;2022-07-29T06:49:56;5.37;;;4.97;;
16286;SDS011;8251;53.568;10.018;2022-07-29T06:52:23;5.17;;;4.77;;
16286;SDS011;8251;53.568;10.018;2022-07-29T06:54:50;5.40;;;2.07;;
16286;SDS011;8251;53.568;10.018;2022-07-29T06:57:18;6.33;;;5.80;;
16286;SDS011;8251;53.568;10.018;2022-07-29T06:59:47;6.13;;;5.53;;
16286;SDS011;8251;53.568;10.018;2022-07-29T07:02:14;6.77;;;5.00;;
16286;SDS011;8251;53.568;10.018;2022-07-29T07:04:41;7.47;;;5.57;;
16286;SDS011;8251;53.568;10.018;2022-07-29T07:07:08;5.90;;;5.40;;
16286;SDS011;8251;53.568;10.018;2022-07-29T07:09:35;5.73;;;5.20;;
16286;SDS011;8251;53.568;10.018;2022-07-29T07:12:02;8.47;;;5.93;;
16286;SDS011;8251;53.568;10.018;2022-07-29T07:14:31;8.10;;;6.60;;
16286;SDS011;8251;53.568;10.018;2022-07-29T07:17:04;6.83;;;5.23;;
16286;SDS011;8251;53.568;10.018;2022-07-29T07:19:32;6.07;;;5.47;;
16286;SDS011;8251;53.568;10.018;2022-07-29T07:21:58;4.03;;;3.63;;
16286;SDS011;8251;53.568;10.018;2022-07-29T07:24:25;6.97;;;6.07;;
16286;SDS011;8251;53.568;10.018;2022-07-29T07:26:52;4.43;;;2.30;;
16286;SDS011;8251;53.568;10.018;2022-07-29T07:29:19;13.67;;;8.63;;
16286;SDS011;8251;53.568;10.018;2022-07-29T07:31:47;17.27;;;8.77;;
16286;SDS011;8251;53.568;10.018;2022-07-29T07:34:15;8.20;;;5.57;;
16286;SDS011;8251;53.568;10.018;2022-07-29T07:36:42;6.40;;;5.50;;
16286;SDS011;8251;53.568;10.018;2022-07-29T07:39:09;6.90;;;6.33;;
16286;SDS011;8251;53.568;10.018;2022-07-29T07:41:36;5.63;;;5.17;;
16286;SDS011;8251;53.568;10.018;2022-07-29T07:44:03;7.17;;;5.70;;
16286;SDS011;8251;53.568;10.018;2022-07-29T07:46:31;8.70;;;7.37;;
16286;SDS011;8251;53.568;10.018;2022-07-29T07:48:58;6.90;;;5.60;;
16286;SDS011;8251;53.568;10.018;2022-07-29T07:51:26;9.03;;;2.40;;
16286;SDS011;8251;53.568;10.018;2022-07-29T07:53:53;3.97;;;2.10;;
16286;SDS011;8251;53.568;10.018;2022-07-29T07:56:20;3.23;;;1.73;;
16286;SDS011;8251;53.568;10.018;2022-07-29T07:58:47;4.20;;;1.80;;
16286;SDS011;8251;53.568;10.018;2022-07-29T08:01:14;5.37;;;4.80;;
16286;SDS011;8251;53.568;10.018;2022-07-29T08:03:44;4.73;;;3.07;;
16286;SDS011;8251;53.568;10.018;2022-07-29T08:06:12;4.27;;;2.30;;
16286;SDS011;8251;53.568;10.018;2022-07-29T08:08:41;6.00;;;2.17;;
16286;SDS011;8251;53.568;10.018;2022-07-29T08:11:08;7.50;;;5.80;;
16286;SDS011;8251;53.568;10.018;2022-07-29T08:13:35;4.70;;;3.20;;
16286;SDS011;8251;53.568;10.018;2022-07-29T08:16:04;5.10;;;2.40;;
16286;SDS011;8251;53.568;10.018;2022-07-29T08:18:40;6.67;;;2.43;;
16286;SDS011;8251;53.568;10.018;2022-07-29T08:21:12;5.07;;;4.10;;
16286;SDS011;8251;53.568;10.018;2022-07-29T08:23:44;2.50;;;1.97;;
16286;SDS011;8251;53.568;10.018;2022-07-29T08:26:14;5.30;;;3.10;;
16286;SDS011;8251;53.568;10.018;2022-07-29T08:28:42;12.02;;;6.45;;
16286;SDS011;8251;53.568;10.018;2022-07-29T08:31:11;6.03;;;2.97;;
16286;SDS011;8251;53.568;10.018;2022-07-29T08:33:46;5.22;;;4.72;;
16286;SDS011;8251;53.568;10.018;2022-07-29T08:36:19;4.00;;;3.35;;
16286;SDS011;8251;53.568;10.018;2022-07-29T08:38:52;3.85;;;1.58;;
16286;SDS011;8251;53.568;10.018;2022-07-29T08:41:19;3.85;;;1.88;;
16286;SDS011;8251;53.568;10.018;2022-07-29T08:43:46;2.92;;;1.55;;
16286;SDS011;8251;53.568;10.018;2022-07-29T08:46:13;4.97;;;4.55;;
16286;SDS011;8251;53.568;10.018;2022-07-29T08:48:42;4.32;;;2.63;;
16286;SDS011;8251;53.568;10.018;2022-07-29T08:51:12;6.90;;;1.85;;
16286;SDS011;8251;53.568;10.018;2022-07-29T08:53:41;2.17;;;1.52;;
16286;SDS011;8251;53.568;10.018;2022-07-29T08:56:12;2.55;;;1.88;;
16286;SDS011;8251;53.568;10.018;2022-07-29T08:58:41;4.32;;;1.92;;
16286;SDS011;8251;53.568;10.018;2022-07-29T09:01:09;7.57;;;1.60;;
16286;SDS011;8251;53.568;10.018;2022-07-29T09:03:38;5.10;;;1.77;;
16286;SDS011;8251;53.568;10.018;2022-07-29T09:06:07;2.92;;;1.60;;
16286;SDS011;8251;53.568;10.018;2022-07-29T09:08:34;4.40;;;1.45;;
16286;SDS011;8251;53.568;10.018;2022-07-29T09:11:01;1.80;;;1.70;;
16286;SDS011;8251;53.568;10.018;2022-07-29T09:13:31;3.08;;;1.67;;
16286;SDS011;8251;53.568;10.018;2022-07-29T09:15:58;4.18;;;1.58;;
16286;SDS011;8251;53.568;10.018;2022-07-29T09:18:34;4.60;;;2.00;;
16286;SDS011;8251;53.568;10.018;2022-07-29T09:21:04;1.80;;;1.52;;
16286;SDS011;8251;53.568;10.018;2022-07-29T09:23:59;2.88;;;1.58;;
16286;SDS011;8251;53.568;10.018;2022-07-29T09:26:27;2.83;;;1.83;;
16286;SDS011;8251;53.568;10.018;2022-07-29T09:28:57;4.93;;;2.17;;
16286;SDS011;8251;53.568;10.018;2022-07-29T09:31:36;6.00;;;1.65;;
16286;SDS011;8251;53.568;10.018;2022-07-29T09:34:10;5.15;;;1.30;;
16286;SDS011;8251;53.568;10.018;2022-07-29T09:36:39;1.70;;;1.60;;
16286;SDS011;8251;53.568;10.018;2022-07-29T09:39:07;3.42;;;1.92;;
16286;SDS011;8251;53.568;10.018;2022-07-29T09:41:44;5.32;;;2.00;;
16286;SDS011;8251;53.568;10.018;2022-07-29T09:44:14;3.92;;;2.00;;
16286;SDS011;8251;53.568;10.018;2022-07-29T09:46:53;2.60;;;1.95;;
16286;SDS011;8251;53.568;10.018;2022-07-29T09:49:21;2.47;;;1.70;;
16286;SDS011;8251;53.568;10.018;2022-07-29T09:51:58;2.88;;;1.67;;
16286;SDS011;8251;53.568;10.018;2022-07-29T09:54:26;4.15;;;1.73;;
16286;SDS011;8251;53.568;10.018;2022-07-29T09:56:54;8.70;;;4.85;;
16286;SDS011;8251;53.568;10.018;2022-07-29T09:59:23;1.77;;;1.38;;
16286;SDS011;8251;53.568;10.018;2022-07-29T10:01:51;6.47;;;1.48;;
16286;SDS011;8251;53.568;10.018;2022-07-29T10:04:19;4.85;;;1.75;;
16286;SDS011;8251;53.568;10.018;2022-07-29T10:06:56;4.18;;;1.30;;
16286;SDS011;8251;53.568;10.018;2022-07-29T10:09:23;3.25;;;1.52;;
16286;SDS011;8251;53.568;10.018;2022-07-29T10:12:07;2.50;;;1.50;;
16286;SDS011;8251;53.568;10.018;2022-07-29T10:14:41;3.75;;;2.20;;
16286;SDS011;8251;53.568;10.018;2022-07-29T10:17:09;5.15;;;1.85;;
16286;SDS011;8251;53.568;10.018;2022-07-29T10:19:37;1.63;;;1.30;;
16286;SDS011;8251;53.568;10.018;2022-07-29T10:22:05;2.58;;;1.63;;
16286;SDS011;8251;53.568;10.018;2022-07-29T10:24:34;4.00;;;1.63;;
16286;SDS011;8251;53.568;10.018;2022-07-29T10:27:04;9.38;;;1.85;;
16286;SDS011;8251;53.568;10.018;2022-07-29T10:29:32;3.97;;;1.50;;
16286;SDS011;8251;53.568;10.018;2022-07-29T10:35:09;8.40;;;2.53;;
16286;SDS011;8251;53.568;10.018;2022-07-29T10:40:54;3.10;;;1.75;;
16286;SDS011;8251;53.568;10.018;2022-07-29T10:43:47;2.10;;;1.92;;
16286;SDS011;8251;53.568;10.018;2022-07-29T10:46:16;4.88;;;3.50;;
16286;SDS011;8251;53.568;10.018;2022-07-29T10:54:35;4.78;;;3.75;;
16286;SDS011;8251;53.568;10.018;2022-07-29T10:57:11;4.43;;;3.60;;
16286;SDS011;8251;53.568;10.018;2022-07-29T10:59:44;4.95;;;1.60;;
16286;SDS011;8251;53.568;10.018;2022-07-29T11:05:17;3.42;;;1.60;;
16286;SDS011;8251;53.568;10.018;2022-07-29T11:10:48;5.95;;;2.47;;
16286;SDS011;8251;53.568;10.018;2022-07-29T11:16:15;6.72;;;1.85;;
16286;SDS011;8251;53.568;10.018;2022-07-29T11:21:51;3.03;;;1.60;;
16286;SDS011;8251;53.568;10.018;2022-07-29T11:24:19;4.50;;;1.85;;
16286;SDS011;8251;53.568;10.018;2022-07-29T11:27:11;5.57;;;1.55;;
16286;SDS011;8251;53.568;10.018;2022-07-29T11:29:49;1.85;;;1.30;;
16286;SDS011;8251;53.568;10.018;2022-07-29T11:32:18;2.65;;;1.42;;
16286;SDS011;8251;53.568;10.018;2022-07-29T11:34:46;3.80;;;1.45;;
16286;SDS011;8251;53.568;10.018;2022-07-29T11:37:24;1.60;;;1.50;;
16286;SDS011;8251;53.568;10.018;2022-07-29T11:40:14;3.33;;;1.40;;
16286;SDS011;8251;53.568;10.018;2022-07-29T11:42:47;3.67;;;1.50;;
16286;SDS011;8251;53.568;10.018;2022-07-29T11:45:22;2.30;;;1.40;;
16286;SDS011;8251;53.568;10.018;2022-07-29T11:47:54;5.00;;;1.35;;
16286;SDS011;8251;53.568;10.018;2022-07-29T11:50:30;3.28;;;1.80;;
16286;SDS011;8251;53.568;10.018;2022-07-29T11:53:10;4.50;;;1.58;;
16286;SDS011;8251;53.568;10.018;2022-07-29T11:55:38;4.32;;;1.98;;
16286;SDS011;8251;53.568;10.018;2022-07-29T11:58:06;7.10;;;1.92;;
16286;SDS011;8251;53.568;10.018;2022-07-29T12:00:34;4.93;;;2.00;;
16286;SDS011;8251;53.568;10.018;2022-07-29T12:03:04;2.55;;;1.30;;
16286;SDS011;8251;53.568;10.018;2022-07-29T12:05:32;2.67;;;1.33;;
16286;SDS011;8251;53.568;10.018;2022-07-29T12:08:07;6.85;;;1.45;;
16286;SDS011;8251;53.568;10.018;2022-07-29T12:10:39;3.95;;;1.90;;
16286;SDS011;8251;53.568;10.018;2022-07-29T12:13:07;3.28;;;1.50;;
16286;SDS011;8251;53.568;10.018;2022-07-29T12:15:35;3.97;;;1.50;;
16286;SDS011;8251;53.568;10.018;2022-07-29T12:18:13;5.20;;;1.95;;
16286;SDS011;8251;53.568;10.018;2022-07-29T12:20:41;2.65;;;1.20;;
16286;SDS011;8251;53.568;10.018;2022-07-29T12:23:10;6.47;;;1.70;;
16286;SDS011;8251;53.568;10.018;2022-07-29T12:25:38;5.43;;;1.60;;
16286;SDS011;8251;53.568;10.018;2022-07-29T12:28:14;3.72;;;1.88;;
16286;SDS011;8251;53.568;10.018;2022-07-29T12:30:58;4.35;;;1.83;;
16286;SDS011;8251;53.568;10.018;2022-07-29T12:33:32;3.38;;;1.30;;
16286;SDS011;8251;53.568;10.018;2022-07-29T12:36:00;1.80;;;1.33;;
16286;SDS011;8251;53.568;10.018;2022-07-29T12:38:29;5.13;;;1.80;;
16286;SDS011;8251;53.568;10.018;2022-07-29T12:40:56;2.38;;;1.52;;
16286;SDS011;8251;53.568;10.018;2022-07-29T12:43:24;2.47;;;1.60;;
16286;SDS011;8251;53.568;10.018;2022-07-29T12:45:52;2.63;;;1.73;;
16286;SDS011;8251;53.568;10.018;2022-07-29T12:48:32;10.80;;;1.48;;
16286;SDS011;8251;53.568;10.018;2022-07-29T12:51:00;3.85;;;3.47;;
16286;SDS011;8251;53.568;10.018;2022-07-29T12:53:30;3.78;;;1.67;;
16286;SDS011;8251;53.568;10.018;2022-07-29T12:55:57;5.90;;;1.58;;
16286;SDS011;8251;53.568;10.018;2022-07-29T12:58:30;8.35;;;1.98;;
16286;SDS011;8251;53.568;10.018;2022-07-29T13:01:05;3.33;;;2.63;;
16286;SDS011;8251;53.568;10.018;2022-07-29T13:03:47;6.72;;;1.85;;
16286;SDS011;8251;53.568;10.018;2022-07-29T13:06:29;2.75;;;1.42;;
16286;SDS011;8251;53.568;10.018;2022-07-29T13:09:03;1.45;;;1.30;;
16286;SDS011;8251;53.568;10.018;2022-07-29T13:11:32;2.53;;;1.10;;
16286;SDS011;8251;53.568;10.018;2022-07-29T13:14:03;5.28;;;1.90;;
16286;SDS011;8251;53.568;10.018;2022-07-29T13:16:59;1.83;;;1.60;;
16286;SDS011;8251;53.568;10.018;2022-07-29T13:19:32;1.85;;;1.42;;
16286;SDS011;8251;53.568;10.018;2022-07-29T13:22:00;3.00;;;1.40;;
16286;SDS011;8251;53.568;10.018;2022-07-29T13:24:29;2.33;;;1.33;;
16286;SDS011;8251;53.568;10.018;2022-07-29T13:26:57;5.88;;;1.38;;
16286;SDS011;8251;53.568;10.018;2022-07-29T13:29:24;4.55;;;1.48;;
16286;SDS011;8251;53.568;10.018;2022-07-29T13:31:52;2.90;;;1.60;;
16286;SDS011;8251;53.568;10.018;2022-07-29T13:34:20;2.53;;;1.52;;
16286;SDS011;8251;53.568;10.018;2022-07-29T13:36:49;2.75;;;1.23;;
16286;SDS011;8251;53.568;10.018;2022-07-29T13:39:16;3.28;;;1.83;;
16286;SDS011;8251;53.568;10.018;2022-07-29T13:41:44;7.68;;;1.65;;
16286;SDS011;8251;53.568;10.018;2022-07-29T13:44:12;5.10;;;1.60;;
16286;SDS011;8251;53.568;10.018;2022-07-29T13:46:39;3.13;;;1.50;;
16286;SDS011;8251;53.568;10.018;2022-07-29T13:49:05;2.95;;;1.33;;
16286;SDS011;8251;53.568;10.018;2022-07-29T13:51:32;4.55;;;1.77;;
16286;SDS011;8251;53.568;10.018;2022-07-29T13:53:59;3.67;;;1.52;;
16286;SDS011;8251;53.568;10.018;2022-07-29T13:56:26;8.45;;;2.03;;
16286;SDS011;8251;53.568;10.018;2022-07-29T13:58:55;6.30;;;1.80;;
16286;SDS011;8251;53.568;10.018;2022-07-29T14:01:23;4.07;;;1.67;;
16286;SDS011;8251;53.568;10.018;2022-07-29T14:03:51;4.05;;;1.73;;
16286;SDS011;8251;53.568;10.018;2022-07-29T14:06:18;4.88;;;1.50;;
16286;SDS011;8251;53.568;10.018;2022-07-29T14:08:45;5.97;;;1.98;;
16286;SDS011;8251;53.568;10.018;2022-07-29T14:11:13;3.85;;;1.80;;
16286;SDS011;8251;53.568;10.018;2022-07-29T14:13:40;6.07;;;3.92;;
16286;SDS011;8251;53.568;10.018;2022-07-29T14:16:11;6.35;;;4.03;;
16286;SDS011;8251;53.568;10.018;2022-07-29T14:18:40;24.95;;;12.60;;
16286;SDS011;8251;53.568;10.018;2022-07-29T14:21:10;5.25;;;2.67;;
16286;SDS011;8251;53.568;10.018;2022-07-29T14:23:37;2.60;;;1.70;;
16286;SDS011;8251;53.568;10.018;2022-07-29T14:26:04;5.90;;;1.75;;
16286;SDS011;8251;53.568;10.018;2022-07-29T14:28:32;9.98;;;1.60;;
16286;SDS011;8251;53.568;10.018;2022-07-29T14:30:59;3.38;;;2.10;;
16286;SDS011;8251;53.568;10.018;2022-07-29T14:33:27;5.18;;;1.50;;
16286;SDS011;8251;53.568;10.018;2022-07-29T14:35:55;5.18;;;1.45;;
16286;SDS011;8251;53.568;10.018;2022-07-29T14:38:22;5.78;;;1.70;;
16286;SDS011;8251;53.568;10.018;2022-07-29T14:40:49;5.80;;;1.83;;
16286;SDS011;8251;53.568;10.018;2022-07-29T14:43:16;6.70;;;1.67;;
16286;SDS011;8251;53.568;10.018;2022-07-29T14:45:43;6.28;;;2.03;;
16286;SDS011;8251;53.568;10.018;2022-07-29T14:48:10;4.68;;;1.70;;
16286;SDS011;8251;53.568;10.018;2022-07-29T14:50:39;6.57;;;1.80;;
16286;SDS011;8251;53.568;10.018;2022-07-29T14:53:06;3.95;;;1.50;;
16286;SDS011;8251;53.568;10.018;2022-07-29T14:55:35;12.25;;;2.38;;
16286;SDS011;8251;53.568;10.018;2022-07-29T14:58:09;5.30;;;1.80;;
16286;SDS011;8251;53.568;10.018;2022-07-29T15:00:41;5.15;;;1.98;;
16286;SDS011;8251;53.568;10.018;2022-07-29T15:03:10;4.10;;;2.50;;
16286;SDS011;8251;53.568;10.018;2022-07-29T15:05:37;2.97;;;1.60;;
16286;SDS011;8251;53.568;10.018;2022-07-29T15:08:05;3.08;;;1.45;;
16286;SDS011;8251;53.568;10.018;2022-07-29T15:10:34;3.70;;;1.40;;
16286;SDS011;8251;53.568;10.018;2022-07-29T15:13:02;2.80;;;1.60;;
16286;SDS011;8251;53.568;10.018;2022-07-29T15:15:29;2.25;;;1.58;;
16286;SDS011;8251;53.568;10.018;2022-07-29T15:17:57;4.18;;;1.40;;
16286;SDS011;8251;53.568;10.018;2022-07-29T15:20:25;6.13;;;1.38;;
16286;SDS011;8251;53.568;10.018;2022-07-29T15:22:59;4.88;;;1.58;;
16286;SDS011;8251;53.568;10.018;2022-07-29T15:25:36;3.97;;;1.65;;
16286;SDS011;8251;53.568;10.018;2022-07-29T15:28:04;4.38;;;2.17;;